createdAt,value
2023-03-12T00:01:59.745Z,-0.92
2023-03-12T00:04:27.043Z,-0.89
2023-03-12T00:06:54.321Z,-0.87
2023-03-12T00:09:20.921Z,-0.87
2023-03-12T00:11:47.409Z,-0.86
2023-03-12T00:14:13.897Z,-0.86
2023-03-12T00:16:40.772Z,-0.85
2023-03-12T00:19:07.277Z,-0.84
2023-03-12T00:21:33.864Z,-0.82
2023-03-12T00:24:00.366Z,-0.83
2023-03-12T00:26:26.951Z,-0.79
2023-03-12T00:28:53.845Z,-0.80
2023-03-12T00:31:22.057Z,-0.80
2023-03-12T00:33:51.469Z,-0.77
2023-03-12T00:36:19.718Z,-0.74
2023-03-12T00:38:46.334Z,-0.73
2023-03-12T00:41:12.960Z,-0.72
2023-03-12T00:43:39.445Z,-0.70
2023-03-12T00:46:05.976Z,-0.68
2023-03-12T00:48:32.924Z,-0.68
2023-03-12T00:50:59.467Z,-0.67
2023-03-12T00:53:26.331Z,-0.65
2023-03-12T00:55:52.926Z,-0.65
2023-03-12T00:58:19.457Z,-0.64
2023-03-12T01:00:46.160Z,-0.65
2023-03-12T01:03:13.472Z,-0.67
2023-03-12T01:05:41.148Z,-0.70
2023-03-12T01:08:09.271Z,-0.73
2023-03-12T01:10:37.287Z,-0.76
2023-03-12T01:13:03.987Z,-0.78
2023-03-12T01:15:30.524Z,-0.80
2023-03-12T01:17:56.990Z,-0.80
2023-03-12T01:20:23.750Z,-0.79
2023-03-12T01:22:51.344Z,-0.80
2023-03-12T01:25:18.458Z,-0.80
2023-03-12T01:27:45.321Z,-0.78
2023-03-12T01:30:12.529Z,-0.76
2023-03-12T01:32:39.203Z,-0.76
2023-03-12T01:35:06.240Z,-0.74
2023-03-12T01:37:33.285Z,-0.72
2023-03-12T01:40:00.438Z,-0.71
2023-03-12T01:42:27.077Z,-0.69
2023-03-12T01:45:04.413Z,-0.66
2023-03-12T01:47:34.038Z,-0.65
2023-03-12T01:50:01.375Z,-0.62
2023-03-12T01:52:32.440Z,-0.59
2023-03-12T01:55:09.536Z,-0.56
2023-03-12T01:57:55.984Z,-0.55
2023-03-12T02:00:25.610Z,-0.50
2023-03-12T02:02:56.249Z,-0.49
2023-03-12T02:05:30.542Z,-0.45
2023-03-12T02:07:57.671Z,-0.42
2023-03-12T02:10:25.916Z,-0.40
2023-03-12T02:12:53.207Z,-0.38
2023-03-12T02:15:19.999Z,-0.36
2023-03-12T02:17:46.692Z,-0.34
2023-03-12T02:20:35.859Z,-0.32
2023-03-12T02:23:12.891Z,-0.28
2023-03-12T02:25:49.826Z,-0.25
2023-03-12T02:28:19.622Z,-0.22
2023-03-12T02:30:48.767Z,-0.20
2023-03-12T02:33:16.135Z,-0.16
2023-03-12T02:35:43.671Z,-0.13
2023-03-12T02:38:32.974Z,-0.10
2023-03-12T02:41:05.529Z,-0.09
2023-03-12T02:43:32.460Z,-0.08
2023-03-12T02:45:58.989Z,-0.06
2023-03-12T02:48:25.574Z,-0.04
2023-03-12T02:50:52.093Z,-0.02
2023-03-12T02:53:18.571Z,0.00
2023-03-12T02:55:45.064Z,0.02
2023-03-12T02:58:11.725Z,0.05
2023-03-12T03:00:38.162Z,0.09
2023-03-12T03:03:04.652Z,0.10
2023-03-12T03:05:31.490Z,0.13
2023-03-12T03:07:57.989Z,0.17
2023-03-12T03:10:24.585Z,0.19
2023-03-12T03:12:51.590Z,0.20
2023-03-12T03:15:18.222Z,0.22
2023-03-12T03:17:44.753Z,0.23
2023-03-12T03:20:12.004Z,0.23
2023-03-12T03:22:39.220Z,0.24
2023-03-12T03:25:07.355Z,0.26
2023-03-12T03:27:34.042Z,0.30
2023-03-12T03:30:00.529Z,0.30
2023-03-12T03:32:27.430Z,0.28
2023-03-12T03:34:53.995Z,0.30
2023-03-12T03:37:20.479Z,0.32
2023-03-12T03:39:47.049Z,0.33
2023-03-12T03:42:13.568Z,0.36
2023-03-12T03:44:40.212Z,0.38
2023-03-12T03:47:06.934Z,0.40
2023-03-12T03:49:33.572Z,0.44
2023-03-12T03:52:00.188Z,0.48
2023-03-12T03:54:26.750Z,0.50
2023-03-12T03:56:53.192Z,0.56
2023-03-12T03:59:19.703Z,0.59
2023-03-12T04:01:46.258Z,0.58
2023-03-12T04:04:12.797Z,0.59
2023-03-12T04:06:39.772Z,0.59
2023-03-12T04:09:06.451Z,0.57
2023-03-12T04:11:32.944Z,0.58
2023-03-12T04:13:59.423Z,0.61
2023-03-12T04:16:27.251Z,0.63
2023-03-12T04:18:53.801Z,0.69
2023-03-12T04:21:20.404Z,0.76
2023-03-12T04:23:46.838Z,0.81
2023-03-12T04:26:13.432Z,0.88
2023-03-12T04:28:39.916Z,0.91
2023-03-12T04:31:07.958Z,0.95
2023-03-12T04:33:37.983Z,0.95
2023-03-12T04:36:05.667Z,0.95
2023-03-12T04:38:32.425Z,1.00
2023-03-12T04:41:05.465Z,1.00
2023-03-12T04:43:32.268Z,1.02
2023-03-12T04:45:59.159Z,1.05
2023-03-12T04:48:26.492Z,1.08
2023-03-12T04:50:53.444Z,1.07
2023-03-12T04:53:20.785Z,1.08
2023-03-12T04:55:47.267Z,1.05
2023-03-12T04:58:14.865Z,1.03
2023-03-12T05:00:41.912Z,1.01
2023-03-12T05:03:09.054Z,1.02
2023-03-12T05:05:36.029Z,1.02
2023-03-12T05:08:03.756Z,1.01
2023-03-12T05:10:30.420Z,1.03
2023-03-12T05:12:57.041Z,1.04
2023-03-12T05:15:23.640Z,1.03
2023-03-12T05:17:50.437Z,1.07
2023-03-12T05:20:17.804Z,1.10
2023-03-12T05:22:44.558Z,1.11
2023-03-12T05:25:11.556Z,1.12
2023-03-12T05:27:38.299Z,1.12
2023-03-12T05:30:06.774Z,1.12
2023-03-12T05:32:33.470Z,1.14
2023-03-12T05:35:00.139Z,1.14
2023-03-12T05:37:26.684Z,1.18
2023-03-12T05:39:54.520Z,1.19
2023-03-12T05:42:21.049Z,1.21
2023-03-12T05:44:47.546Z,1.22
2023-03-12T05:47:14.063Z,1.21
2023-03-12T05:49:40.809Z,1.23
2023-03-12T05:52:07.348Z,1.26
2023-03-12T05:54:33.878Z,1.29
2023-03-12T05:57:00.610Z,1.32
2023-03-12T05:59:27.390Z,1.38
2023-03-12T06:01:53.993Z,1.40
2023-03-12T06:04:20.533Z,1.41
2023-03-12T06:06:47.185Z,1.43
2023-03-12T06:09:13.803Z,1.46
2023-03-12T06:11:40.307Z,1.46
2023-03-12T06:14:06.839Z,1.48
2023-03-12T06:16:33.590Z,1.48
2023-03-12T06:19:02.599Z,1.49
2023-03-12T06:21:32.186Z,1.51
2023-03-12T06:23:59.639Z,1.51
2023-03-12T06:26:27.411Z,1.51
2023-03-12T06:28:54.304Z,1.53
2023-03-12T06:31:21.820Z,1.54
2023-03-12T06:33:48.460Z,1.52
2023-03-12T06:36:15.139Z,1.54
2023-03-12T06:38:41.782Z,1.55
2023-03-12T06:41:11.225Z,1.56
2023-03-12T06:43:39.255Z,1.58
2023-03-12T06:46:08.602Z,1.62
2023-03-12T06:48:36.882Z,1.65
2023-03-12T06:51:10.755Z,1.63
2023-03-12T06:53:40.395Z,1.62
2023-03-12T06:56:08.834Z,1.64
2023-03-12T06:58:35.362Z,1.66
2023-03-12T07:01:01.884Z,1.68
2023-03-12T07:03:28.397Z,1.70
2023-03-12T07:05:56.708Z,1.72
2023-03-12T07:08:23.624Z,1.74
2023-03-12T07:10:50.227Z,1.75
2023-03-12T07:13:16.902Z,1.77
2023-03-12T07:15:45.113Z,1.78
2023-03-12T07:18:12.273Z,1.81
2023-03-12T07:20:41.254Z,1.86
2023-03-12T07:23:08.649Z,1.89
2023-03-12T07:25:37.603Z,1.90
2023-03-12T07:28:04.452Z,1.91
2023-03-12T07:30:34.396Z,1.92
2023-03-12T07:33:05.871Z,1.93
2023-03-12T07:35:32.964Z,1.95
2023-03-12T07:38:01.051Z,1.97
2023-03-12T07:40:28.531Z,2.00
2023-03-12T07:42:55.250Z,2.01
2023-03-12T07:45:21.812Z,2.03
2023-03-12T07:47:48.443Z,2.06
2023-03-12T07:50:16.271Z,2.07
2023-03-12T07:52:43.129Z,2.09
2023-03-12T07:55:11.010Z,2.10
2023-03-12T07:57:38.347Z,2.13
2023-03-12T08:00:07.706Z,2.15
2023-03-12T08:02:34.548Z,2.18
2023-03-12T08:05:01.218Z,2.21
2023-03-12T08:07:32.333Z,2.24
2023-03-12T08:10:00.009Z,2.28
2023-03-12T08:12:27.149Z,2.30
2023-03-12T08:14:53.892Z,2.34
2023-03-12T08:17:20.643Z,2.41
2023-03-12T08:19:47.252Z,2.46
2023-03-12T08:22:13.745Z,2.50
2023-03-12T08:24:40.311Z,2.50
2023-03-12T08:27:06.833Z,2.52
2023-03-12T08:29:33.565Z,2.56
2023-03-12T08:32:04.943Z,2.61
2023-03-12T08:34:33.858Z,2.68
2023-03-12T08:37:00.766Z,2.77
2023-03-12T08:39:27.244Z,2.82
2023-03-12T08:41:55.543Z,2.87
2023-03-12T08:44:23.342Z,2.92
2023-03-12T08:46:50.233Z,2.96
2023-03-12T08:49:16.711Z,3.02
2023-03-12T08:51:43.236Z,3.08
2023-03-12T08:54:09.811Z,3.15
2023-03-12T08:56:42.379Z,3.20
2023-03-12T08:59:12.561Z,3.29
2023-03-12T09:01:43.041Z,3.35
2023-03-12T09:04:10.405Z,3.38
2023-03-12T09:06:38.627Z,3.46
2023-03-12T09:09:05.414Z,3.54
2023-03-12T09:11:33.840Z,3.63
2023-03-12T09:16:47.859Z,3.90
2023-03-12T09:19:14.378Z,4.10
2023-03-12T09:21:40.995Z,4.27
2023-03-12T09:24:08.261Z,4.35
2023-03-12T09:26:34.888Z,4.38
2023-03-12T09:29:01.562Z,4.41
2023-03-12T09:31:28.782Z,4.47
2023-03-12T09:33:55.304Z,4.66
2023-03-12T09:36:21.990Z,4.75
2023-03-12T09:38:48.508Z,4.88
2023-03-12T09:41:19.657Z,5.13
2023-03-12T09:43:52.934Z,5.21
2023-03-12T09:46:29.216Z,5.23
2023-03-12T09:49:01.670Z,5.30
2023-03-12T09:51:51.607Z,5.29
2023-03-12T09:54:23.931Z,5.32
2023-03-12T09:56:55.017Z,5.38
2023-03-12T09:59:22.382Z,5.49
2023-03-12T10:02:02.069Z,5.60
2023-03-12T10:04:58.135Z,5.66
2023-03-12T10:07:34.792Z,5.78
2023-03-12T10:10:55.824Z,5.98
2023-03-12T10:13:33.549Z,6.09
2023-03-12T10:16:08.591Z,6.07
2023-03-12T10:18:55.877Z,6.09
2023-03-12T10:21:32.010Z,6.32
2023-03-12T10:24:29.182Z,6.38
2023-03-12T10:26:58.309Z,6.44
2023-03-12T10:29:35.061Z,6.52
2023-03-12T10:32:07.455Z,6.52
2023-03-12T10:34:45.839Z,6.56
2023-03-12T10:37:22.612Z,6.65
2023-03-12T10:39:50.060Z,6.73
2023-03-12T10:42:29.222Z,6.94
2023-03-12T10:44:59.944Z,7.10
2023-03-12T10:47:38.240Z,7.29
2023-03-12T10:50:18.106Z,7.34
2023-03-12T10:52:46.362Z,7.38
2023-03-12T10:55:12.799Z,7.50
2023-03-12T10:57:42.873Z,7.74
2023-03-12T11:00:13.648Z,7.77
2023-03-12T11:02:43.538Z,7.74
2023-03-12T11:05:25.900Z,7.92
2023-03-12T11:07:52.940Z,7.98
2023-03-12T11:10:25.219Z,8.00
2023-03-12T11:12:58.577Z,7.99
2023-03-12T11:15:40.821Z,8.03
2023-03-12T11:18:25.104Z,8.06
2023-03-12T11:21:12.695Z,8.13
2023-03-12T11:24:15.259Z,8.18
2023-03-12T11:27:03.298Z,8.20
2023-03-12T11:29:33.358Z,8.23
2023-03-12T11:32:17.156Z,8.27
2023-03-12T11:34:49.559Z,8.34
2023-03-12T11:37:53.589Z,8.42
2023-03-12T11:40:54.230Z,8.56
2023-03-12T11:43:42.819Z,8.51
2023-03-12T11:46:44.771Z,8.47
2023-03-12T11:49:26.369Z,8.42
2023-03-12T11:52:02.036Z,8.41
2023-03-12T11:54:47.897Z,8.41
2023-03-12T11:57:57.105Z,8.46
2023-03-12T12:00:39.091Z,8.57
2023-03-12T12:03:42.871Z,8.68
2023-03-12T12:06:12.287Z,8.77
2023-03-12T12:08:48.081Z,8.81
2023-03-12T12:11:32.497Z,8.84
2023-03-12T12:14:44.064Z,9.01
2023-03-12T12:17:29.764Z,9.12
2023-03-12T12:20:22.257Z,9.10
2023-03-12T12:22:58.797Z,9.08
2023-03-12T12:25:55.806Z,9.06
2023-03-12T12:28:59.912Z,9.27
2023-03-12T12:31:56.969Z,9.44
2023-03-12T12:34:36.325Z,9.63
2023-03-12T12:37:18.871Z,9.83
2023-03-12T12:40:18.064Z,9.99
2023-03-12T12:43:04.455Z,10.11
2023-03-12T12:45:31.228Z,10.07
2023-03-12T12:48:03.850Z,10.00
2023-03-12T12:50:36.834Z,9.98
2023-03-12T12:53:23.160Z,9.95
2023-03-12T12:56:01.126Z,9.97
2023-03-12T12:58:59.021Z,10.14
2023-03-12T13:01:27.852Z,10.39
2023-03-12T13:04:01.786Z,10.43
2023-03-12T13:06:30.211Z,10.36
2023-03-12T13:08:56.716Z,10.40
2023-03-12T13:11:27.350Z,10.62
2023-03-12T13:14:03.622Z,10.68
2023-03-12T13:16:46.514Z,10.54
2023-03-12T13:19:16.079Z,10.48
2023-03-12T13:22:10.551Z,10.39
2023-03-12T13:24:44.995Z,10.29
2023-03-12T13:27:36.519Z,10.28
2023-03-12T13:30:27.914Z,10.31
2023-03-12T13:32:57.554Z,10.30
2023-03-12T13:35:24.321Z,10.20
2023-03-12T13:37:53.492Z,10.18
2023-03-12T13:40:29.233Z,10.06
2023-03-12T13:43:02.773Z,10.10
2023-03-12T13:45:31.902Z,10.26
2023-03-12T13:48:02.094Z,10.54
2023-03-12T13:50:30.330Z,10.92
2023-03-12T13:53:25.918Z,11.28
2023-03-12T13:56:10.734Z,11.48
2023-03-12T13:58:57.352Z,11.67
2023-03-12T14:01:29.437Z,11.87
2023-03-12T14:04:00.431Z,11.78
2023-03-12T14:06:30.313Z,11.89
2023-03-12T14:09:39.268Z,12.15
2023-03-12T14:12:19.345Z,12.08
2023-03-12T14:14:51.815Z,12.15
2023-03-12T14:17:24.456Z,12.16
2023-03-12T14:20:23.220Z,11.96
2023-03-12T14:22:59.001Z,11.93
2023-03-12T14:25:37.788Z,11.84
2023-03-12T14:28:12.544Z,11.77
2023-03-12T14:30:57.673Z,11.70
2023-03-12T14:33:27.268Z,11.65
2023-03-12T14:36:01.668Z,11.49
2023-03-12T14:38:34.540Z,11.43
2023-03-12T14:41:13.621Z,11.53
2023-03-12T14:43:42.534Z,11.48
2023-03-12T14:46:21.553Z,11.44
2023-03-12T14:48:50.637Z,11.40
2023-03-12T14:51:24.406Z,11.43
2023-03-12T14:53:51.838Z,11.54
2023-03-12T14:56:35.153Z,11.56
2023-03-12T14:59:21.481Z,11.60
2023-03-12T15:01:48.357Z,11.55
2023-03-12T15:04:18.342Z,11.46
2023-03-12T15:06:51.260Z,11.47
2023-03-12T15:09:28.208Z,11.49
2023-03-12T15:11:58.421Z,11.21
2023-03-12T15:14:28.222Z,11.16
2023-03-12T15:16:56.022Z,11.16
2023-03-12T15:19:31.394Z,11.19
2023-03-12T15:21:58.278Z,11.21
2023-03-12T15:24:25.303Z,11.21
2023-03-12T15:26:51.873Z,11.10
2023-03-12T15:29:29.285Z,11.07
2023-03-12T15:31:58.864Z,11.03
2023-03-12T15:34:39.254Z,11.00
2023-03-12T15:37:40.947Z,11.00
2023-03-12T15:40:22.043Z,10.92
2023-03-12T15:42:49.775Z,11.16
2023-03-12T15:45:32.075Z,10.98
2023-03-12T15:47:58.709Z,10.92
2023-03-12T15:50:36.753Z,10.82
2023-03-12T15:53:06.679Z,10.67
2023-03-12T15:55:35.658Z,10.57
2023-03-12T15:58:02.991Z,10.48
2023-03-12T16:00:44.637Z,10.44
2023-03-12T16:03:17.308Z,10.45
2023-03-12T16:05:44.612Z,10.41
2023-03-12T16:08:11.520Z,10.39
2023-03-12T16:10:38.978Z,10.37
2023-03-12T16:13:05.793Z,10.34
2023-03-12T16:15:36.122Z,10.32
2023-03-12T16:18:03.009Z,10.30
2023-03-12T16:20:30.198Z,10.29
2023-03-12T16:22:56.887Z,10.25
2023-03-12T16:25:23.843Z,10.20
2023-03-12T16:27:54.799Z,10.18
2023-03-12T16:30:31.322Z,10.12
2023-03-12T16:33:00.268Z,10.08
2023-03-12T16:35:28.311Z,10.05
2023-03-12T16:37:55.757Z,10.04
2023-03-12T16:40:32.953Z,10.01
2023-03-12T16:43:03.367Z,9.97
2023-03-12T16:45:33.397Z,9.94
2023-03-12T16:48:03.510Z,9.90
2023-03-12T16:50:30.716Z,9.88
2023-03-12T16:52:58.006Z,9.85
2023-03-12T16:55:44.207Z,9.80
2023-03-12T16:58:13.271Z,9.75
2023-03-12T17:00:40.556Z,9.74
2023-03-12T17:03:07.088Z,9.73
2023-03-12T17:05:33.628Z,9.69
2023-03-12T17:08:00.165Z,9.68
2023-03-12T17:10:26.789Z,9.63
2023-03-12T17:12:53.833Z,9.61
2023-03-12T17:15:33.361Z,9.60
2023-03-12T17:18:03.657Z,9.59
2023-03-12T17:20:36.071Z,9.56
2023-03-12T17:23:03.928Z,9.53
2023-03-12T17:25:33.001Z,9.49
2023-03-12T17:28:00.110Z,9.46
2023-03-12T17:30:29.170Z,9.40
2023-03-12T17:33:04.729Z,9.35
2023-03-12T17:35:31.896Z,9.29
2023-03-12T17:37:58.827Z,9.29
2023-03-12T17:40:25.493Z,9.26
2023-03-12T17:42:52.293Z,9.20
2023-03-12T17:45:18.794Z,9.15
2023-03-12T17:47:45.458Z,9.11
2023-03-12T17:50:12.476Z,9.10
2023-03-12T17:52:38.999Z,9.08
2023-03-12T17:55:06.533Z,9.07
2023-03-12T17:57:33.415Z,9.07
2023-03-12T17:59:59.905Z,9.05
2023-03-12T18:02:26.472Z,9.04
2023-03-12T18:04:53.062Z,9.07
2023-03-12T18:07:19.550Z,9.08
2023-03-12T18:09:46.088Z,9.11
2023-03-12T18:12:12.758Z,9.11
2023-03-12T18:14:39.443Z,9.11
2023-03-12T18:17:06.258Z,9.08
2023-03-12T18:19:35.182Z,9.04
2023-03-12T18:22:01.987Z,9.03
2023-03-12T18:24:28.601Z,9.05
2023-03-12T18:26:55.166Z,9.08
2023-03-12T18:29:21.639Z,9.08
2023-03-12T18:31:48.116Z,9.11
2023-03-12T18:34:14.591Z,9.12
2023-03-12T18:36:41.092Z,9.14
2023-03-12T18:39:07.760Z,9.14
2023-03-12T18:41:34.204Z,9.14
2023-03-12T18:44:00.713Z,9.14
2023-03-12T18:46:28.095Z,9.17
2023-03-12T18:48:54.808Z,9.15
2023-03-12T18:51:21.354Z,9.15
2023-03-12T18:53:47.794Z,9.17
2023-03-12T18:56:14.879Z,9.21
2023-03-12T18:58:41.468Z,9.20
2023-03-12T19:01:08.036Z,9.18
2023-03-12T19:03:36.634Z,9.20
2023-03-12T19:06:08.554Z,9.20
2023-03-12T19:08:37.289Z,9.18
2023-03-12T19:11:09.610Z,9.19
2023-03-12T19:13:36.418Z,9.18
2023-03-12T19:16:06.051Z,9.16
2023-03-12T19:18:32.516Z,9.15
2023-03-12T19:20:59.093Z,9.14
2023-03-12T19:23:25.633Z,9.12
2023-03-12T19:25:52.221Z,9.11
2023-03-12T19:28:18.869Z,9.12
2023-03-12T19:30:45.384Z,9.11
2023-03-12T19:33:12.111Z,9.08
2023-03-12T19:35:39.850Z,9.08
2023-03-12T19:38:06.380Z,9.12
2023-03-12T19:40:34.150Z,9.11
2023-03-12T19:43:02.205Z,9.10
2023-03-12T19:45:29.096Z,9.06
2023-03-12T19:47:55.765Z,9.08
2023-03-12T19:50:23.077Z,9.09
2023-03-12T19:52:49.763Z,9.10
2023-03-12T19:55:16.454Z,9.12
2023-03-12T19:57:43.097Z,9.13
2023-03-12T20:00:12.192Z,9.11
2023-03-12T20:02:39.418Z,9.11
2023-03-12T20:05:07.336Z,9.08
2023-03-12T20:07:34.016Z,9.05
2023-03-12T20:10:00.606Z,9.05
2023-03-12T20:12:27.437Z,9.03
2023-03-12T20:14:53.937Z,9.03
2023-03-12T20:17:20.416Z,9.03
2023-03-12T20:19:46.888Z,9.03
2023-03-12T20:22:13.507Z,9.04
2023-03-12T20:24:40.245Z,9.02
2023-03-12T20:27:06.780Z,8.99
2023-03-12T20:29:33.389Z,8.97
2023-03-12T20:31:59.954Z,8.95
2023-03-12T20:34:26.519Z,8.94
2023-03-12T20:36:53.052Z,8.93
2023-03-12T20:39:19.817Z,8.95
2023-03-12T20:41:46.312Z,8.94
2023-03-12T20:44:12.944Z,8.92
2023-03-12T20:46:39.442Z,8.91
2023-03-12T20:49:05.980Z,8.93
2023-03-12T20:51:32.477Z,8.91
2023-03-12T20:53:59.029Z,8.88
2023-03-12T20:56:25.583Z,8.90
2023-03-12T20:58:52.339Z,8.91
2023-03-12T21:01:18.882Z,8.93
2023-03-12T21:03:45.758Z,8.91
2023-03-12T21:06:12.319Z,8.92
2023-03-12T21:08:38.854Z,8.91
2023-03-12T21:11:06.767Z,8.93
2023-03-12T21:13:33.286Z,8.93
2023-03-12T21:15:59.828Z,8.93
2023-03-12T21:18:26.402Z,8.89
2023-03-12T21:20:53.135Z,8.88
2023-03-12T21:23:19.905Z,8.90
2023-03-12T21:25:46.496Z,8.89
2023-03-12T21:28:13.060Z,8.89
2023-03-12T21:30:39.618Z,8.88
2023-03-12T21:33:07.275Z,8.88
2023-03-12T21:35:33.764Z,8.85
2023-03-12T21:38:00.369Z,8.85
2023-03-12T21:40:27.007Z,8.85
2023-03-12T21:42:53.538Z,8.84
2023-03-12T21:45:19.966Z,8.83
2023-03-12T21:47:46.395Z,8.83
2023-03-12T21:50:13.013Z,8.80
2023-03-12T21:52:42.913Z,8.79
2023-03-12T21:55:10.123Z,8.78
2023-03-12T21:57:36.632Z,8.78
2023-03-12T22:00:04.333Z,8.77
2023-03-12T22:02:31.706Z,8.73
2023-03-12T22:05:01.362Z,8.70
2023-03-12T22:07:30.983Z,8.67
2023-03-12T22:09:57.668Z,8.62
2023-03-12T22:12:24.334Z,8.58
2023-03-12T22:14:51.056Z,8.56
2023-03-12T22:17:17.783Z,8.51
2023-03-12T22:19:44.477Z,8.50
2023-03-12T22:22:11.207Z,8.50
2023-03-12T22:24:38.025Z,8.49
2023-03-12T22:27:07.355Z,8.50
2023-03-12T22:29:34.510Z,8.53
2023-03-12T22:32:01.170Z,8.53
2023-03-12T22:34:29.421Z,8.52
2023-03-12T22:36:55.987Z,8.52
2023-03-12T22:39:22.462Z,8.52
2023-03-12T22:41:52.968Z,8.50
2023-03-12T22:44:19.638Z,8.50
2023-03-12T22:46:46.350Z,8.51
2023-03-12T22:49:12.956Z,8.50
2023-03-12T22:51:39.458Z,8.51
2023-03-12T22:54:06.022Z,8.50
2023-03-12T22:56:32.535Z,8.52
2023-03-12T22:58:59.505Z,8.53
2023-03-12T23:01:26.646Z,8.53
2023-03-12T23:03:53.176Z,8.52
2023-03-12T23:06:22.842Z,8.54
2023-03-12T23:08:49.628Z,8.53
2023-03-12T23:11:17.347Z,8.52
2023-03-12T23:13:45.257Z,8.53
2023-03-12T23:16:17.526Z,8.53
2023-03-12T23:18:44.881Z,8.51
2023-03-12T23:21:17.809Z,8.49
2023-03-12T23:23:45.087Z,8.49
2023-03-12T23:26:15.533Z,8.49
2023-03-12T23:28:42.088Z,8.48
2023-03-12T23:31:10.570Z,8.46
2023-03-12T23:33:37.841Z,8.43
2023-03-12T23:36:10.948Z,8.42
2023-03-12T23:38:38.265Z,8.39
2023-03-12T23:41:07.778Z,8.39
2023-03-12T23:43:34.574Z,8.38
2023-03-12T23:46:03.190Z,8.33
2023-03-12T23:48:31.625Z,8.34
2023-03-12T23:51:09.296Z,8.33
2023-03-12T23:53:37.181Z,8.32
2023-03-12T23:56:05.963Z,8.32
2023-03-12T23:58:33.223Z,8.34
